createdAt,value
2023-03-02T00:02:12.837Z,27.50
2023-03-02T00:04:56.842Z,22.97
2023-03-02T00:07:34.924Z,21.07
2023-03-02T00:10:03.834Z,25.30
2023-03-02T00:12:34.011Z,24.50
2023-03-02T00:15:05.320Z,22.40
2023-03-02T00:17:34.521Z,19.63
2023-03-02T00:20:11.606Z,16.57
2023-03-02T00:22:43.197Z,17.33
2023-03-02T00:25:13.648Z,14.20
2023-03-02T00:27:42.487Z,16.63
2023-03-02T00:30:13.296Z,13.57
2023-03-02T00:32:41.779Z,15.40
2023-03-02T00:35:10.514Z,13.93
2023-03-02T00:37:39.138Z,16.83
2023-03-02T00:40:09.996Z,14.67
2023-03-02T00:42:38.844Z,16.30
2023-03-02T00:45:08.180Z,15.10
2023-03-02T00:47:37.797Z,19.13
2023-03-02T00:50:07.884Z,15.67
2023-03-02T00:52:35.910Z,12.33
2023-03-02T00:55:04.347Z,17.10
2023-03-02T00:57:32.250Z,18.40
2023-03-02T01:00:00.569Z,17.93
2023-03-02T01:02:28.743Z,18.90
2023-03-02T01:04:56.843Z,20.73
2023-03-02T01:07:28.510Z,21.97
2023-03-02T01:09:56.697Z,19.37
2023-03-02T01:12:24.673Z,19.80
2023-03-02T01:14:52.740Z,21.77
2023-03-02T01:17:22.757Z,21.70
2023-03-02T01:19:51.328Z,17.77
2023-03-02T01:22:21.019Z,21.57
2023-03-02T01:24:49.973Z,18.67
2023-03-02T01:27:18.214Z,22.63
2023-03-02T01:29:46.312Z,21.50
2023-03-02T01:32:14.327Z,17.83
2023-03-02T01:34:42.354Z,20.03
2023-03-02T01:37:10.470Z,21.33
2023-03-02T01:39:38.548Z,26.83
2023-03-02T01:43:21.391Z,21.20
2023-03-02T01:45:57.463Z,22.70
2023-03-02T01:48:40.769Z,21.03
2023-03-02T01:51:14.814Z,24.53
2023-03-02T01:53:50.468Z,22.50
2023-03-02T01:56:27.203Z,23.30
2023-03-02T01:59:02.559Z,19.97
2023-03-02T02:01:35.501Z,22.43
2023-03-02T02:04:04.120Z,24.40
2023-03-02T02:07:12.852Z,25.23
2023-03-02T02:09:49.038Z,25.07
2023-03-02T02:12:23.838Z,25.90
2023-03-02T02:14:52.312Z,23.13
2023-03-02T02:17:20.728Z,27.80
2023-03-02T02:20:10.601Z,26.63
2023-03-02T02:23:27.164Z,26.03
2023-03-02T02:26:18.264Z,23.40
2023-03-02T02:29:12.307Z,23.60
2023-03-02T02:31:53.518Z,29.37
2023-03-02T02:34:34.421Z,27.53
2023-03-02T02:37:39.583Z,27.63
2023-03-02T02:40:16.742Z,31.47
2023-03-02T02:42:49.786Z,33.93
2023-03-02T02:45:27.370Z,26.47
2023-03-02T02:47:57.482Z,27.20
2023-03-02T02:50:32.554Z,30.67
2023-03-02T02:53:18.329Z,40.37
2023-03-02T02:55:51.870Z,31.33
2023-03-02T02:58:52.686Z,28.93
2023-03-02T03:01:26.719Z,27.57
2023-03-02T03:04:03.785Z,32.27
2023-03-02T03:06:42.156Z,34.43
2023-03-02T03:09:13.346Z,35.00
2023-03-02T03:11:48.369Z,33.47
2023-03-02T03:14:24.531Z,36.67
2023-03-02T03:16:53.058Z,34.77
2023-03-02T03:19:32.407Z,39.30
2023-03-02T03:22:02.895Z,40.80
2023-03-02T03:24:35.225Z,43.33
2023-03-02T03:27:05.525Z,35.20
2023-03-02T03:29:35.882Z,46.40
2023-03-02T03:32:07.184Z,41.03
2023-03-02T03:34:40.904Z,43.20
2023-03-02T03:37:15.128Z,39.03
2023-03-02T03:39:43.843Z,42.03
2023-03-02T03:42:12.482Z,40.33
2023-03-02T03:44:40.820Z,45.17
2023-03-02T03:47:08.875Z,48.30
2023-03-02T03:49:37.262Z,39.63
2023-03-02T03:52:05.575Z,51.03
2023-03-02T03:54:34.138Z,54.07
2023-03-02T03:57:02.280Z,57.20
2023-03-02T03:59:30.365Z,49.97
2023-03-02T04:02:01.810Z,53.70
2023-03-02T04:04:34.784Z,37.57
2023-03-02T04:07:03.578Z,36.77
2023-03-02T04:09:34.060Z,41.03
2023-03-02T04:12:02.314Z,36.93
2023-03-02T04:14:33.657Z,41.03
2023-03-02T04:17:05.563Z,45.50
2023-03-02T04:19:35.572Z,35.97
2023-03-02T04:22:04.588Z,44.93
2023-03-02T04:24:36.294Z,47.40
2023-03-02T04:27:13.865Z,47.40
2023-03-02T04:29:45.792Z,58.70
2023-03-02T04:32:19.947Z,51.63
2023-03-02T04:34:56.844Z,53.77
2023-03-02T04:37:25.199Z,51.17
2023-03-02T04:39:56.983Z,49.00
2023-03-02T04:42:28.410Z,52.40
2023-03-02T04:45:03.074Z,48.60
2023-03-02T04:47:39.815Z,45.47
2023-03-02T04:50:13.635Z,61.47
2023-03-02T04:52:48.186Z,52.87
2023-03-02T04:55:28.959Z,57.53
2023-03-02T04:57:57.608Z,50.87
2023-03-02T05:00:28.947Z,58.67
2023-03-02T05:02:58.394Z,54.93
2023-03-02T05:05:36.154Z,56.57
2023-03-02T05:08:07.934Z,61.97
2023-03-02T05:10:36.479Z,58.93
2023-03-02T05:13:13.788Z,83.63
2023-03-02T05:15:48.398Z,100.17
2023-03-02T05:18:20.920Z,159.07
2023-03-02T05:20:54.040Z,128.00
2023-03-02T05:23:34.786Z,120.97
2023-03-02T05:26:26.504Z,125.47
2023-03-02T05:29:02.361Z,160.77
2023-03-02T05:31:43.976Z,110.37
2023-03-02T05:34:27.450Z,108.77
2023-03-02T05:40:21.078Z,127.80
2023-03-02T05:42:55.780Z,89.77
2023-03-02T05:45:48.729Z,93.10
2023-03-02T05:48:39.261Z,129.63
2023-03-02T05:51:15.933Z,79.80
2023-03-02T05:53:48.713Z,98.17
2023-03-02T05:56:22.950Z,79.00
2023-03-02T05:58:51.872Z,121.53
2023-03-02T06:01:28.577Z,74.60
2023-03-02T06:04:07.415Z,82.17
2023-03-02T06:06:39.511Z,67.27
2023-03-02T06:09:34.441Z,66.10
2023-03-02T06:12:03.062Z,56.60
2023-03-02T06:14:31.654Z,83.07
2023-03-02T06:17:00.394Z,80.83
2023-03-02T06:19:28.932Z,71.13
2023-03-02T06:21:57.322Z,88.67
2023-03-02T06:24:27.704Z,56.27
2023-03-02T06:26:59.102Z,52.87
2023-03-02T06:29:32.358Z,58.13
2023-03-02T06:32:27.723Z,59.73
2023-03-02T06:35:05.377Z,51.23
2023-03-02T06:37:34.171Z,44.90
2023-03-02T06:40:08.566Z,69.27
2023-03-02T06:42:39.203Z,49.33
2023-03-02T06:45:16.611Z,129.17
2023-03-02T06:47:47.697Z,54.27
2023-03-02T06:50:16.638Z,58.80
2023-03-02T06:52:47.903Z,134.07
2023-03-02T06:55:16.152Z,75.30
2023-03-02T06:57:44.328Z,148.40
2023-03-02T07:00:17.159Z,75.10
2023-03-02T07:02:56.914Z,128.03
2023-03-02T07:05:36.023Z,159.47
2023-03-02T07:11:13.185Z,85.10
2023-03-02T07:13:56.403Z,63.80
2023-03-02T07:16:24.769Z,67.20
2023-03-02T07:18:58.490Z,79.80
2023-03-02T07:21:33.232Z,71.07
2023-03-02T07:24:10.836Z,81.70
2023-03-02T07:26:39.386Z,86.10
2023-03-02T07:29:08.093Z,54.83
2023-03-02T07:31:39.774Z,75.57
2023-03-02T07:34:11.766Z,62.40
2023-03-02T07:36:40.514Z,88.73
2023-03-02T07:39:08.785Z,137.27
2023-03-02T07:41:39.985Z,122.67
2023-03-02T07:44:08.179Z,87.10
2023-03-02T07:46:36.795Z,46.43
2023-03-02T07:49:15.038Z,59.10
2023-03-02T07:51:52.734Z,64.40
2023-03-02T07:54:26.605Z,53.03
2023-03-02T07:56:54.782Z,45.13
2023-03-02T07:59:23.099Z,52.70
2023-03-02T08:01:54.472Z,62.73
2023-03-02T08:04:26.137Z,129.20
2023-03-02T08:06:54.191Z,63.80
2023-03-02T08:09:25.424Z,82.50
2023-03-02T08:11:53.314Z,76.20
2023-03-02T08:14:21.191Z,115.17
2023-03-02T08:16:50.040Z,110.17
2023-03-02T08:19:19.712Z,101.17
2023-03-02T08:21:47.872Z,115.87
2023-03-02T08:24:15.825Z,50.47
2023-03-02T08:26:43.774Z,81.77
2023-03-02T08:29:11.943Z,72.73
2023-03-02T08:31:40.116Z,78.80
2023-03-02T08:34:08.272Z,67.00
2023-03-02T08:36:36.219Z,80.70
2023-03-02T08:39:04.181Z,44.93
2023-03-02T08:41:32.465Z,69.10
2023-03-02T08:44:00.587Z,73.53
2023-03-02T08:46:30.575Z,54.17
2023-03-02T08:48:58.496Z,61.87
2023-03-02T08:51:26.953Z,40.03
2023-03-02T08:53:56.542Z,57.90
2023-03-02T08:56:32.914Z,54.30
2023-03-02T08:59:13.444Z,45.63
2023-03-02T09:01:42.623Z,64.83
2023-03-02T09:04:11.381Z,129.63
2023-03-02T09:06:44.958Z,93.33
2023-03-02T09:09:15.645Z,43.80
2023-03-02T09:11:44.968Z,66.47
2023-03-02T09:14:13.411Z,48.60
2023-03-02T09:16:44.288Z,50.70
2023-03-02T09:19:13.898Z,34.43
2023-03-02T09:21:42.009Z,27.20
2023-03-02T09:24:10.237Z,69.43
2023-03-02T09:26:39.290Z,69.90
2023-03-02T09:29:07.897Z,37.10
2023-03-02T09:31:37.459Z,38.37
2023-03-02T09:34:06.298Z,30.57
2023-03-02T09:36:36.502Z,36.77
2023-03-02T09:39:09.511Z,27.67
2023-03-02T09:42:24.074Z,51.07
2023-03-02T09:45:38.178Z,32.10
2023-03-02T09:48:36.612Z,35.67
2023-03-02T09:51:45.720Z,22.30
2023-03-02T09:54:25.187Z,29.30
2023-03-02T09:56:59.424Z,37.23
2023-03-02T10:00:09.529Z,27.87
2023-03-02T10:03:14.753Z,21.30
2023-03-02T10:05:54.142Z,33.87
2023-03-02T10:08:31.008Z,32.87
2023-03-02T10:11:54.866Z,26.70
2023-03-02T10:14:49.845Z,27.07
2023-03-02T10:18:01.194Z,27.77
2023-03-02T10:20:44.982Z,22.93
2023-03-02T10:23:41.305Z,22.43
2023-03-02T10:26:38.216Z,27.17
2023-03-02T10:29:43.016Z,23.13
2023-03-02T10:32:37.523Z,24.13
2023-03-02T10:35:22.964Z,24.07
2023-03-02T10:38:22.843Z,24.93
2023-03-02T10:41:03.827Z,23.93
2023-03-02T10:44:01.772Z,25.70
2023-03-02T10:46:44.996Z,23.07
2023-03-02T10:49:34.359Z,23.60
2023-03-02T10:52:14.234Z,22.00
2023-03-02T10:54:42.911Z,26.90
2023-03-02T10:57:37.179Z,22.87
2023-03-02T11:00:26.076Z,21.13
2023-03-02T11:03:06.011Z,23.27
2023-03-02T11:05:45.380Z,24.57
2023-03-02T11:08:28.015Z,16.83
2023-03-02T11:11:03.477Z,22.30
2023-03-02T11:13:38.242Z,18.63
2023-03-02T11:16:18.239Z,19.57
2023-03-02T11:18:55.782Z,18.63
2023-03-02T11:21:43.730Z,18.97
2023-03-02T11:24:24.231Z,33.07
2023-03-02T11:27:03.026Z,21.47
2023-03-02T11:30:06.806Z,20.70
2023-03-02T11:32:54.138Z,17.83
2023-03-02T11:35:43.645Z,22.57
2023-03-02T11:38:32.584Z,18.90
2023-03-02T11:41:32.978Z,24.17
2023-03-02T11:44:14.855Z,18.20
2023-03-02T11:46:49.576Z,20.57
2023-03-02T11:49:50.976Z,20.53
2023-03-02T11:52:30.607Z,22.80
2023-03-02T11:55:13.047Z,21.17
2023-03-02T11:57:55.727Z,24.27
2023-03-02T12:00:43.341Z,20.60
2023-03-02T12:03:17.348Z,19.00
2023-03-02T12:06:05.257Z,27.90
2023-03-02T12:08:40.754Z,21.13
2023-03-02T12:11:17.903Z,54.67
2023-03-02T12:13:55.163Z,18.40
2023-03-02T12:16:43.173Z,28.47
2023-03-02T12:19:17.079Z,59.10
2023-03-02T12:22:09.066Z,76.93
2023-03-02T12:24:42.090Z,20.97
2023-03-02T12:27:16.614Z,29.80
2023-03-02T12:30:28.308Z,30.53
2023-03-02T12:33:25.719Z,23.40
2023-03-02T12:36:12.917Z,20.27
2023-03-02T12:38:47.932Z,20.47
2023-03-02T12:42:30.052Z,24.40
2023-03-02T12:45:47.632Z,17.70
2023-03-02T12:48:56.783Z,17.43
2023-03-02T12:51:32.367Z,19.33
2023-03-02T12:54:21.022Z,19.40
2023-03-02T12:56:49.782Z,17.53
2023-03-02T12:59:27.281Z,15.87
2023-03-02T13:02:24.345Z,15.93
2023-03-02T13:05:00.766Z,16.13
2023-03-02T13:08:02.834Z,16.57
2023-03-02T13:10:53.165Z,16.57
2023-03-02T13:13:38.341Z,18.47
2023-03-02T13:16:28.680Z,15.70
2023-03-02T13:19:11.504Z,16.77
2023-03-02T13:21:40.067Z,16.60
2023-03-02T13:24:44.781Z,17.13
2023-03-02T13:27:25.455Z,15.70
2023-03-02T13:29:56.641Z,18.57
2023-03-02T13:32:38.649Z,22.33
2023-03-02T13:35:24.413Z,17.80
2023-03-02T13:38:37.005Z,25.17
2023-03-02T13:41:05.673Z,24.43
2023-03-02T13:43:40.052Z,26.13
2023-03-02T13:46:29.898Z,32.67
2023-03-02T13:49:11.484Z,32.40
2023-03-02T13:51:47.253Z,35.23
2023-03-02T13:54:28.205Z,42.90
2023-03-02T13:57:00.972Z,45.23
2023-03-02T13:59:33.817Z,46.47
2023-03-02T14:02:01.893Z,58.70
2023-03-02T14:04:29.920Z,61.83
2023-03-02T14:06:57.885Z,59.43
2023-03-02T14:09:27.296Z,69.40
2023-03-02T14:11:57.761Z,57.43
2023-03-02T14:14:29.672Z,78.93
2023-03-02T14:16:57.723Z,81.27
2023-03-02T14:19:25.965Z,63.50
2023-03-02T14:21:53.896Z,54.93
2023-03-02T14:24:21.955Z,51.70
2023-03-02T14:26:50.480Z,49.60
2023-03-02T14:29:36.273Z,45.37
2023-03-02T14:32:06.728Z,51.43
2023-03-02T14:34:37.254Z,51.63
2023-03-02T14:37:18.181Z,39.80
2023-03-02T14:39:54.176Z,46.43
2023-03-02T14:42:24.074Z,47.73
2023-03-02T14:44:53.098Z,42.13
2023-03-02T14:47:22.443Z,45.77
2023-03-02T14:49:50.490Z,48.37
2023-03-02T14:52:40.770Z,45.70
2023-03-02T14:55:28.464Z,40.63
2023-03-02T14:58:10.609Z,47.80
2023-03-02T15:00:39.146Z,237.00
2023-03-02T15:03:07.440Z,83.83
2023-03-02T15:05:35.643Z,85.53
2023-03-02T15:08:03.820Z,82.17
2023-03-02T15:10:31.812Z,89.33
2023-03-02T15:12:59.715Z,93.47
2023-03-02T15:15:27.940Z,95.60
2023-03-02T15:17:55.874Z,95.10
2023-03-02T15:20:23.929Z,88.50
2023-03-02T15:22:52.649Z,87.27
2023-03-02T15:25:29.148Z,102.50
2023-03-02T15:27:57.501Z,48.50
2023-03-02T15:30:30.503Z,51.03
2023-03-02T15:33:01.827Z,44.47
2023-03-02T15:35:30.322Z,53.57
2023-03-02T15:38:02.565Z,42.63
2023-03-02T15:40:30.590Z,47.03
2023-03-02T15:42:59.145Z,75.17
2023-03-02T15:45:27.591Z,140.07
2023-03-02T15:47:55.852Z,70.67
2023-03-02T15:50:26.754Z,115.57
2023-03-02T15:52:58.571Z,57.87
2023-03-02T15:55:27.136Z,152.00
2023-03-02T15:57:58.081Z,78.33
2023-03-02T16:00:27.578Z,69.10
2023-03-02T16:02:55.488Z,96.67
2023-03-02T16:05:23.508Z,110.90
2023-03-02T16:07:51.454Z,92.13
2023-03-02T16:10:20.660Z,87.67
2023-03-02T16:12:48.624Z,90.83
2023-03-02T16:15:16.691Z,57.60
2023-03-02T16:17:44.643Z,67.93
2023-03-02T16:20:12.978Z,96.90
2023-03-02T16:22:40.863Z,133.40
2023-03-02T16:25:09.348Z,159.70
2023-03-02T16:27:37.811Z,97.67
2023-03-02T16:30:08.174Z,103.03
2023-03-02T16:32:36.266Z,100.67
2023-03-02T16:35:04.557Z,107.07
2023-03-02T16:37:32.537Z,131.87
2023-03-02T16:40:00.592Z,108.07
2023-03-02T16:42:30.490Z,65.87
2023-03-02T16:44:58.364Z,49.67
2023-03-02T16:47:29.555Z,52.57
2023-03-02T16:49:58.693Z,45.63
2023-03-02T16:52:26.680Z,53.80
2023-03-02T16:54:54.627Z,44.60
2023-03-02T16:57:22.865Z,41.30
2023-03-02T16:59:50.798Z,38.40
2023-03-02T17:02:18.755Z,47.20
2023-03-02T17:04:46.641Z,47.17
2023-03-02T17:07:14.579Z,42.27
2023-03-02T17:09:42.705Z,44.07
2023-03-02T17:12:10.657Z,50.07
2023-03-02T17:14:38.526Z,51.97
2023-03-02T17:17:06.419Z,48.97
2023-03-02T17:19:34.425Z,46.27
2023-03-02T17:22:04.202Z,56.87
2023-03-02T17:24:34.116Z,41.53
2023-03-02T17:27:02.161Z,46.23
2023-03-02T17:29:30.217Z,36.63
2023-03-02T17:31:58.444Z,36.00
2023-03-02T17:34:31.152Z,40.37
2023-03-02T17:37:00.779Z,34.60
2023-03-02T17:39:31.722Z,30.17
2023-03-02T17:41:59.707Z,39.47
2023-03-02T17:44:27.924Z,36.20
2023-03-02T17:46:58.863Z,32.90
2023-03-02T17:49:26.816Z,35.03
2023-03-02T17:51:54.916Z,29.87
2023-03-02T17:54:22.832Z,29.67
2023-03-02T17:56:50.843Z,41.93
2023-03-02T17:59:18.958Z,39.40
2023-03-02T18:01:47.028Z,34.00
2023-03-02T18:04:15.061Z,46.97
2023-03-02T18:06:42.985Z,41.47
2023-03-02T18:09:11.002Z,34.17
2023-03-02T18:11:42.582Z,36.80
2023-03-02T18:14:17.956Z,35.47
2023-03-02T18:16:46.855Z,34.10
2023-03-02T18:19:14.846Z,38.70
2023-03-02T18:21:43.048Z,36.83
2023-03-02T18:24:11.322Z,27.43
2023-03-02T18:26:39.405Z,28.23
2023-03-02T18:29:07.630Z,30.57
2023-03-02T18:31:35.729Z,28.47
2023-03-02T18:34:04.294Z,32.10
2023-03-02T18:36:32.333Z,29.77
2023-03-02T18:39:00.623Z,28.63
2023-03-02T18:41:28.518Z,28.23
2023-03-02T18:43:56.446Z,29.17
2023-03-02T18:46:30.592Z,27.00
2023-03-02T18:49:00.903Z,26.90
2023-03-02T18:51:28.882Z,30.03
2023-03-02T18:53:57.289Z,23.83
2023-03-02T18:56:25.383Z,26.47
2023-03-02T18:58:53.447Z,29.17
2023-03-02T19:01:22.253Z,25.67
2023-03-02T19:03:50.344Z,27.73
2023-03-02T19:06:18.300Z,23.90
2023-03-02T19:08:48.058Z,24.50
2023-03-02T19:11:18.620Z,30.33
2023-03-02T19:13:46.986Z,31.47
2023-03-02T19:16:15.465Z,27.97
2023-03-02T19:18:44.353Z,23.20
2023-03-02T19:21:12.246Z,26.90
2023-03-02T19:23:41.004Z,27.03
2023-03-02T19:26:09.831Z,32.63
2023-03-02T19:28:39.844Z,28.43
2023-03-02T19:31:11.108Z,35.20
2023-03-02T19:33:40.220Z,30.33
2023-03-02T19:36:09.556Z,52.70
2023-03-02T19:38:41.440Z,97.27
2023-03-02T19:41:17.236Z,78.80
2023-03-02T19:43:46.444Z,35.53
2023-03-02T19:46:17.435Z,30.47
2023-03-02T19:48:45.476Z,34.47
2023-03-02T19:51:15.629Z,171.03
2023-03-02T19:53:45.897Z,30.87
2023-03-02T19:56:15.786Z,44.27
2023-03-02T19:58:47.984Z,94.33
2023-03-02T20:01:24.927Z,130.77
2023-03-02T20:03:55.364Z,266.20
2023-03-02T20:06:31.533Z,62.63
2023-03-02T20:09:06.492Z,84.83
2023-03-02T20:11:34.777Z,23.93
2023-03-02T20:14:03.095Z,30.87
2023-03-02T20:16:35.694Z,37.60
2023-03-02T20:19:05.368Z,27.83
2023-03-02T20:21:34.912Z,21.33
2023-03-02T20:24:02.819Z,23.03
2023-03-02T20:26:31.419Z,88.47
2023-03-02T20:29:05.165Z,44.93
2023-03-02T20:31:35.133Z,21.10
2023-03-02T20:34:10.814Z,24.50
2023-03-02T20:36:39.062Z,22.20
2023-03-02T20:39:22.412Z,24.67
2023-03-02T20:41:51.156Z,18.30
2023-03-02T20:44:21.085Z,23.00
2023-03-02T20:46:56.680Z,21.83
2023-03-02T20:49:27.787Z,28.53
2023-03-02T20:51:58.989Z,26.97
2023-03-02T20:54:38.497Z,22.33
2023-03-02T20:57:08.625Z,16.60
2023-03-02T20:59:39.251Z,19.83
2023-03-02T21:02:07.955Z,31.10
2023-03-02T21:04:36.105Z,19.73
2023-03-02T21:07:04.338Z,19.70
2023-03-02T21:09:32.308Z,21.60
2023-03-02T21:12:00.301Z,23.23
2023-03-02T21:14:29.679Z,26.77
2023-03-02T21:16:58.571Z,23.40
2023-03-02T21:19:29.406Z,25.33
2023-03-02T21:21:58.023Z,25.83
2023-03-02T21:24:26.235Z,22.17
2023-03-02T21:26:55.110Z,20.63
2023-03-02T21:29:26.776Z,20.37
2023-03-02T21:31:55.197Z,20.63
2023-03-02T21:34:23.224Z,17.53
2023-03-02T21:36:53.565Z,20.93
2023-03-02T21:39:23.557Z,20.07
2023-03-02T21:41:53.312Z,19.70
2023-03-02T21:44:21.495Z,17.70
2023-03-02T21:46:50.807Z,19.67
2023-03-02T21:49:22.577Z,19.00
2023-03-02T21:51:50.689Z,19.47
2023-03-02T21:54:18.627Z,23.87
2023-03-02T21:56:46.540Z,22.70
2023-03-02T21:59:14.446Z,23.60
2023-03-02T22:01:42.458Z,24.43
2023-03-02T22:04:10.520Z,22.57
2023-03-02T22:06:38.467Z,30.77
2023-03-02T22:09:06.424Z,29.73
2023-03-02T22:11:37.953Z,28.27
2023-03-02T22:14:17.741Z,29.63
2023-03-02T22:16:48.080Z,31.10
2023-03-02T22:19:31.788Z,31.50
2023-03-02T22:22:03.209Z,33.47
2023-03-02T22:24:33.464Z,40.33
2023-03-02T22:27:31.329Z,38.23
2023-03-02T22:30:01.637Z,40.13
2023-03-02T22:32:35.771Z,42.87
2023-03-02T22:35:24.350Z,33.93
2023-03-02T22:38:02.717Z,29.63
2023-03-02T22:40:34.888Z,32.50
2023-03-02T22:43:29.453Z,27.83
2023-03-02T22:46:18.570Z,36.60
2023-03-02T22:48:52.817Z,32.93
2023-03-02T22:51:29.961Z,40.90
2023-03-02T22:54:00.721Z,53.63
2023-03-02T22:56:42.934Z,37.00
2023-03-02T22:59:26.721Z,38.80
2023-03-02T23:02:06.274Z,39.67
2023-03-02T23:04:38.159Z,38.50
2023-03-02T23:07:20.936Z,52.40
2023-03-02T23:09:49.437Z,53.63
2023-03-02T23:12:27.408Z,47.40
2023-03-02T23:14:58.823Z,37.97
2023-03-02T23:17:41.397Z,42.27
2023-03-02T23:20:14.386Z,47.83
2023-03-02T23:22:46.017Z,62.63
2023-03-02T23:25:14.600Z,49.30
2023-03-02T23:27:42.555Z,63.40
2023-03-02T23:30:11.316Z,60.20
2023-03-02T23:32:39.215Z,60.53
2023-03-02T23:35:07.518Z,56.30
2023-03-02T23:37:35.444Z,61.30
2023-03-02T23:40:04.120Z,50.77
2023-03-02T23:42:32.053Z,48.20
2023-03-02T23:45:00.120Z,55.27
2023-03-02T23:47:28.100Z,51.47
2023-03-02T23:49:56.155Z,41.73
2023-03-02T23:52:24.118Z,54.50
2023-03-02T23:54:52.025Z,45.43
2023-03-02T23:57:20.161Z,44.90
2023-03-02T23:59:48.058Z,42.47
